AJC8008 CYMX-EHAM
Flight info
| Callsign | AJC8008 |
|---|---|
| Flight time | N/A |
| Altitude | 37000 |
| Route | ANTEG DCT OBRON DCT MOBUB DCT EBMOS DCT IMORI DCT MIILS N371B JOOPY/M083F370 DCT 49N050W 51N040W 52N030W 52N020W DCT LIMRI/N0473F370 DCT XETBO DCT UNBEG DCT DAP DCT LIFFY UL975 WAL M16 DOLAS L603 LAMSO |
| Aircraft | B77L/H-SDE1E2E3FGHIJ2J3J4J5M1RWXY/LB1D1 |
Departure
| Time | N/A |
|---|---|
| Airport | Montreal Mirabel International Airport (CYMX) |
Arrival
| Time | 2026-05-05 02:38 |
|---|---|
| Airport | Amsterdam Airport Schiphol (EHAM) |
| Time | Latitude | Longitude | Altitude | Speed | Heading |
|---|---|---|---|---|---|
| 2026-05-05 01:34 | 53.44361 | -6.03175 | 37096 ft | 480 kts | 82° |
| 2026-05-05 01:34 | 53.44716 | -5.97990 | 37091 ft | 480 kts | 82° |
| 2026-05-05 01:35 | 53.45491 | -5.86866 | 37090 ft | 480 kts | 82° |
| 2026-05-05 01:35 | 53.46261 | -5.75769 | 37091 ft | 480 kts | 82° |
| 2026-05-05 01:36 | 53.47020 | -5.64645 | 37089 ft | 480 kts | 82° |
| 2026-05-05 01:36 | 53.47768 | -5.53497 | 37090 ft | 480 kts | 83° |
| 2026-05-05 01:37 | 53.47900 | -5.42377 | 37091 ft | 481 kts | 92° |
| 2026-05-05 01:37 | 53.47524 | -5.31161 | 37091 ft | 481 kts | 92° |
| 2026-05-05 01:38 | 53.47192 | -5.19929 | 37093 ft | 481 kts | 92° |
| 2026-05-05 01:38 | 53.46865 | -5.08715 | 37087 ft | 482 kts | 92° |
| 2026-05-05 01:39 | 53.46504 | -4.97835 | 37086 ft | 481 kts | 92° |
| 2026-05-05 01:39 | 53.46128 | -4.86618 | 37085 ft | 481 kts | 92° |
| 2026-05-05 01:40 | 53.45734 | -4.75413 | 37084 ft | 481 kts | 92° |
| 2026-05-05 01:40 | 53.45326 | -4.64204 | 37084 ft | 481 kts | 92° |
| 2026-05-05 01:41 | 53.44948 | -4.53001 | 37078 ft | 481 kts | 92° |
| 2026-05-05 01:41 | 53.44592 | -4.41881 | 37079 ft | 481 kts | 92° |
| 2026-05-05 01:42 | 53.44207 | -4.30677 | 37080 ft | 481 kts | 93° |
| 2026-05-05 01:42 | 53.43754 | -4.19479 | 37079 ft | 481 kts | 93° |
| 2026-05-05 01:43 | 53.43286 | -4.08374 | 37079 ft | 481 kts | 93° |
| 2026-05-05 01:43 | 53.42835 | -3.97626 | 37075 ft | 481 kts | 93° |
| 2026-05-05 01:44 | 53.42373 | -3.86444 | 37080 ft | 481 kts | 93° |
| 2026-05-05 01:44 | 53.41913 | -3.75245 | 37078 ft | 481 kts | 93° |
| 2026-05-05 01:45 | 53.41443 | -3.64088 | 37075 ft | 481 kts | 94° |
| 2026-05-05 01:45 | 53.40959 | -3.52884 | 37072 ft | 482 kts | 94° |
| 2026-05-05 01:46 | 53.40472 | -3.41674 | 37073 ft | 483 kts | 94° |
| 2026-05-05 01:46 | 53.39979 | -3.30522 | 37076 ft | 484 kts | 93° |
| 2026-05-05 01:47 | 53.39471 | -3.19279 | 37075 ft | 484 kts | 94° |
| 2026-05-05 01:47 | 53.38973 | -3.08037 | 37079 ft | 484 kts | 93° |
| 2026-05-05 01:48 | 53.38570 | -2.97134 | 37077 ft | 484 kts | 93° |
| 2026-05-05 01:48 | 53.38163 | -2.86018 | 37074 ft | 484 kts | 93° |
| 2026-05-05 01:49 | 53.37728 | -2.74771 | 37063 ft | 484 kts | 93° |
| 2026-05-05 01:49 | 53.37276 | -2.63556 | 37059 ft | 484 kts | 94° |
| 2026-05-05 01:50 | 53.36815 | -2.52351 | 37055 ft | 484 kts | 94° |
| 2026-05-05 01:50 | 53.36346 | -2.41181 | 37050 ft | 484 kts | 94° |
| 2026-05-05 01:51 | 53.35864 | -2.29952 | 37047 ft | 484 kts | 94° |
| 2026-05-05 01:51 | 53.35020 | -2.18792 | 37060 ft | 483 kts | 99° |
| 2026-05-05 01:52 | 53.33834 | -2.07714 | 37053 ft | 484 kts | 100° |
| 2026-05-05 01:52 | 53.32692 | -1.97055 | 37048 ft | 485 kts | 99° |
| 2026-05-05 01:53 | 53.31521 | -1.85920 | 37074 ft | 487 kts | 99° |
| 2026-05-05 01:53 | 53.30343 | -1.74753 | 37053 ft | 489 kts | 100° |
| 2026-05-05 01:54 | 53.29150 | -1.63558 | 37060 ft | 489 kts | 100° |
| 2026-05-05 01:54 | 53.27945 | -1.52377 | 37044 ft | 488 kts | 100° |
| 2026-05-05 01:55 | 53.26744 | -1.41311 | 37031 ft | 487 kts | 100° |
| 2026-05-05 01:55 | 53.25530 | -1.30208 | 37051 ft | 485 kts | 100° |
| 2026-05-05 01:56 | 53.24310 | -1.19149 | 37045 ft | 484 kts | 100° |
| 2026-05-05 01:56 | 53.23095 | -1.08236 | 37032 ft | 483 kts | 100° |
| 2026-05-05 01:57 | 53.21902 | -0.97602 | 37047 ft | 482 kts | 101° |
| 2026-05-05 01:57 | 53.20660 | -0.86629 | 37035 ft | 481 kts | 101° |
| 2026-05-05 01:58 | 53.19409 | -0.75673 | 37019 ft | 481 kts | 101° |
| 2026-05-05 01:58 | 53.18150 | -0.64739 | 37019 ft | 482 kts | 101° |
| 2026-05-05 01:59 | 53.16886 | -0.53835 | 37027 ft | 482 kts | 101° |
| 2026-05-05 01:59 | 53.15605 | -0.42872 | 37028 ft | 483 kts | 101° |
| 2026-05-05 02:00 | 53.14309 | -0.31879 | 37014 ft | 483 kts | 101° |
| 2026-05-05 02:00 | 53.13004 | -0.20903 | 37026 ft | 484 kts | 101° |
| 2026-05-05 02:01 | 53.11688 | -0.09918 | 37027 ft | 484 kts | 101° |
| 2026-05-05 02:01 | 53.10409 | 0.00660 | 37033 ft | 484 kts | 101° |
| 2026-05-05 02:02 | 53.09075 | 0.11613 | 37031 ft | 483 kts | 101° |
| 2026-05-05 02:02 | 53.07729 | 0.22573 | 37030 ft | 483 kts | 102° |
| 2026-05-05 02:03 | 53.06377 | 0.33496 | 37029 ft | 483 kts | 102° |
| 2026-05-05 02:03 | 53.05023 | 0.44351 | 37042 ft | 482 kts | 102° |
| 2026-05-05 02:04 | 53.03651 | 0.55261 | 37040 ft | 482 kts | 102° |
| 2026-05-05 02:04 | 53.02269 | 0.66160 | 37041 ft | 483 kts | 102° |
| 2026-05-05 02:05 | 53.00875 | 0.77075 | 37033 ft | 483 kts | 102° |
| 2026-05-05 02:05 | 52.99473 | 0.87971 | 37024 ft | 483 kts | 102° |
| 2026-05-05 02:06 | 52.98069 | 0.98805 | 37039 ft | 483 kts | 102° |
| 2026-05-05 02:06 | 52.96772 | 1.09412 | 37041 ft | 484 kts | 101° |
| 2026-05-05 02:07 | 52.95522 | 1.20398 | 37025 ft | 485 kts | 101° |
| 2026-05-05 02:07 | 52.94261 | 1.31389 | 37041 ft | 485 kts | 101° |
| 2026-05-05 02:08 | 52.92981 | 1.42291 | 37040 ft | 486 kts | 101° |
| 2026-05-05 02:08 | 52.91674 | 1.53281 | 37036 ft | 486 kts | 102° |
| 2026-05-05 02:09 | 52.90355 | 1.64268 | 37038 ft | 487 kts | 102° |
| 2026-05-05 02:09 | 52.89027 | 1.75245 | 37025 ft | 487 kts | 102° |
| 2026-05-05 02:10 | 52.87686 | 1.86246 | 37033 ft | 488 kts | 102° |
| 2026-05-05 02:10 | 52.86343 | 1.97172 | 37037 ft | 488 kts | 102° |
| 2026-05-05 02:11 | 52.85018 | 2.07870 | 36494 ft | 495 kts | 102° |
| 2026-05-05 02:11 | 52.84322 | 2.13453 | 35480 ft | 489 kts | 102° |
| 2026-05-05 02:11 | 52.83633 | 2.18963 | 34534 ft | 490 kts | 102° |
| 2026-05-05 02:12 | 52.82950 | 2.24406 | 33510 ft | 477 kts | 102° |
| 2026-05-05 02:12 | 52.81629 | 2.34873 | 31526 ft | 469 kts | 103° |
| 2026-05-05 02:12 | 52.80952 | 2.40199 | 30469 ft | 480 kts | 104° |
| 2026-05-05 02:13 | 52.80254 | 2.45662 | 29676 ft | 491 kts | 104° |
| 2026-05-05 02:13 | 52.79545 | 2.51199 | 28806 ft | 492 kts | 104° |
| 2026-05-05 02:13 | 52.78837 | 2.56691 | 28029 ft | 486 kts | 104° |
| 2026-05-05 02:13 | 52.78136 | 2.62106 | 27302 ft | 479 kts | 104° |
| 2026-05-05 02:14 | 52.77440 | 2.67453 | 26550 ft | 474 kts | 103° |
| 2026-05-05 02:14 | 52.76750 | 2.72748 | 25817 ft | 469 kts | 103° |
| 2026-05-05 02:14 | 52.76073 | 2.77919 | 25113 ft | 465 kts | 103° |
| 2026-05-05 02:14 | 52.75394 | 2.83116 | 24410 ft | 462 kts | 103° |
| 2026-05-05 02:15 | 52.74731 | 2.88287 | 23717 ft | 459 kts | 103° |
| 2026-05-05 02:15 | 52.74071 | 2.93433 | 22917 ft | 457 kts | 103° |
| 2026-05-05 02:15 | 52.73386 | 2.98537 | 22172 ft | 452 kts | 106° |
| 2026-05-05 02:15 | 52.72278 | 3.03002 | 21500 ft | 437 kts | 121° |
| 2026-05-05 02:16 | 52.70721 | 3.07257 | 20885 ft | 432 kts | 123° |
| 2026-05-05 02:16 | 52.69160 | 3.11467 | 20218 ft | 429 kts | 123° |
| 2026-05-05 02:16 | 52.67630 | 3.15663 | 19576 ft | 426 kts | 122° |
| 2026-05-05 02:16 | 52.66151 | 3.19792 | 18941 ft | 423 kts | 122° |
| 2026-05-05 02:17 | 52.64674 | 3.23968 | 18306 ft | 421 kts | 122° |
| 2026-05-05 02:17 | 52.63212 | 3.28118 | 17572 ft | 418 kts | 121° |
| 2026-05-05 02:17 | 52.61759 | 3.32244 | 16891 ft | 414 kts | 121° |
| 2026-05-05 02:17 | 52.60320 | 3.36317 | 16241 ft | 410 kts | 121° |
| 2026-05-05 02:18 | 52.58910 | 3.40359 | 15595 ft | 403 kts | 118° |
| 2026-05-05 02:18 | 52.57999 | 3.44650 | 14963 ft | 393 kts | 101° |
| 2026-05-05 02:18 | 52.57587 | 3.49045 | 14391 ft | 388 kts | 99° |
| 2026-05-05 02:18 | 52.57177 | 3.53418 | 13797 ft | 386 kts | 99° |
| 2026-05-05 02:19 | 52.56755 | 3.57695 | 13145 ft | 383 kts | 100° |
| 2026-05-05 02:19 | 52.56314 | 3.61991 | 12508 ft | 380 kts | 100° |
| 2026-05-05 02:19 | 52.55866 | 3.66242 | 11900 ft | 376 kts | 100° |
| 2026-05-05 02:19 | 52.55414 | 3.70455 | 11330 ft | 372 kts | 100° |
| 2026-05-05 02:20 | 52.54965 | 3.74622 | 10816 ft | 367 kts | 100° |
| 2026-05-05 02:20 | 52.54527 | 3.78656 | 10675 ft | 351 kts | 100° |
| 2026-05-05 02:20 | 52.54106 | 3.82531 | 10499 ft | 337 kts | 100° |
| 2026-05-05 02:20 | 52.53702 | 3.86247 | 10364 ft | 324 kts | 100° |
| 2026-05-05 02:21 | 52.53310 | 3.89827 | 10266 ft | 334 kts | 100° |
| 2026-05-05 02:21 | 52.52900 | 3.93558 | 10349 ft | 326 kts | 100° |
| 2026-05-05 02:21 | 52.52464 | 3.97084 | 10104 ft | 312 kts | 108° |
| 2026-05-05 02:21 | 52.51644 | 4.00164 | 9612 ft | 305 kts | 118° |
| 2026-05-05 02:22 | 52.50680 | 4.03136 | 9175 ft | 290 kts | 119° |
| 2026-05-05 02:22 | 52.49737 | 4.05996 | 9224 ft | 286 kts | 119° |
| 2026-05-05 02:22 | 52.48785 | 4.08900 | 9246 ft | 292 kts | 119° |
| 2026-05-05 02:22 | 52.47825 | 4.11853 | 9195 ft | 293 kts | 118° |
| 2026-05-05 02:23 | 52.46903 | 4.14711 | 8815 ft | 285 kts | 118° |
| 2026-05-05 02:23 | 52.45990 | 4.17559 | 8627 ft | 280 kts | 118° |
| 2026-05-05 02:23 | 52.45085 | 4.20388 | 8425 ft | 281 kts | 118° |
| 2026-05-05 02:23 | 52.44175 | 4.23236 | 8277 ft | 281 kts | 118° |
| 2026-05-05 02:24 | 52.43267 | 4.26083 | 8118 ft | 284 kts | 118° |
| 2026-05-05 02:24 | 52.42349 | 4.28957 | 7964 ft | 279 kts | 118° |
| 2026-05-05 02:24 | 52.41458 | 4.31751 | 7689 ft | 278 kts | 117° |
| 2026-05-05 02:24 | 52.40569 | 4.34532 | 7527 ft | 275 kts | 117° |
| 2026-05-05 02:25 | 52.39691 | 4.37282 | 7292 ft | 277 kts | 117° |
| 2026-05-05 02:25 | 52.38796 | 4.40081 | 7177 ft | 277 kts | 117° |
| 2026-05-05 02:25 | 52.37896 | 4.42891 | 6952 ft | 281 kts | 117° |
| 2026-05-05 02:25 | 52.36997 | 4.45694 | 6812 ft | 279 kts | 117° |
| 2026-05-05 02:26 | 52.36102 | 4.48483 | 6598 ft | 278 kts | 117° |
| 2026-05-05 02:26 | 52.35210 | 4.51258 | 6457 ft | 273 kts | 117° |
| 2026-05-05 02:26 | 52.34332 | 4.53987 | 6216 ft | 275 kts | 117° |
| 2026-05-05 02:26 | 52.33447 | 4.56737 | 6074 ft | 272 kts | 117° |
| 2026-05-05 02:27 | 52.32584 | 4.59414 | 5820 ft | 275 kts | 117° |
| 2026-05-05 02:27 | 52.31693 | 4.62176 | 5691 ft | 269 kts | 117° |
| 2026-05-05 02:27 | 52.30854 | 4.64775 | 5483 ft | 269 kts | 117° |
| 2026-05-05 02:27 | 52.29993 | 4.67435 | 5322 ft | 267 kts | 117° |
| 2026-05-05 02:28 | 52.29130 | 4.70104 | 5132 ft | 266 kts | 117° |
| 2026-05-05 02:28 | 52.28268 | 4.72764 | 4989 ft | 264 kts | 116° |
| 2026-05-05 02:28 | 52.27404 | 4.75430 | 4750 ft | 266 kts | 116° |
| 2026-05-05 02:28 | 52.26544 | 4.78082 | 4619 ft | 263 kts | 117° |
| 2026-05-05 02:29 | 52.25684 | 4.80727 | 4417 ft | 264 kts | 116° |
| 2026-05-05 02:29 | 52.24832 | 4.83344 | 4274 ft | 261 kts | 117° |
| 2026-05-05 02:29 | 52.23980 | 4.85955 | 4068 ft | 261 kts | 116° |
| 2026-05-05 02:29 | 52.23073 | 4.88420 | 3830 ft | 254 kts | 130° |
| 2026-05-05 02:30 | 52.21625 | 4.89974 | 3691 ft | 252 kts | 161° |
| 2026-05-05 02:30 | 52.19903 | 4.90321 | 3709 ft | 248 kts | 182° |
| 2026-05-05 02:30 | 52.18193 | 4.90155 | 3693 ft | 245 kts | 184° |
| 2026-05-05 02:30 | 52.16499 | 4.89979 | 3555 ft | 244 kts | 184° |
| 2026-05-05 02:31 | 52.14811 | 4.89811 | 3475 ft | 243 kts | 184° |
| 2026-05-05 02:31 | 52.13130 | 4.89533 | 3405 ft | 243 kts | 195° |
| 2026-05-05 02:31 | 52.11697 | 4.88154 | 3374 ft | 240 kts | 228° |
| 2026-05-05 02:31 | 52.10947 | 4.85887 | 3248 ft | 219 kts | 258° |
| 2026-05-05 02:32 | 52.10838 | 4.83615 | 3192 ft | 192 kts | 273° |
| 2026-05-05 02:32 | 52.10926 | 4.81552 | 3076 ft | 173 kts | 285° |
| 2026-05-05 02:32 | 52.11456 | 4.80006 | 2999 ft | 146 kts | 316° |
| 2026-05-05 02:32 | 52.12128 | 4.78853 | 2991 ft | 139 kts | 315° |
| 2026-05-05 02:33 | 52.12779 | 4.77701 | 2998 ft | 136 kts | 317° |
| 2026-05-05 02:33 | 52.13559 | 4.77026 | 2990 ft | 128 kts | 359° |
| 2026-05-05 02:33 | 52.14543 | 4.76973 | 2875 ft | 145 kts | 355° |
| 2026-05-05 02:33 | 52.15506 | 4.76857 | 2692 ft | 133 kts | 358° |
| 2026-05-05 02:34 | 52.16431 | 4.76761 | 2541 ft | 133 kts | 358° |
| 2026-05-05 02:34 | 52.17357 | 4.76723 | 2356 ft | 134 kts | 2° |
| 2026-05-05 02:34 | 52.18287 | 4.76761 | 2180 ft | 134 kts | 5° |
| 2026-05-05 02:34 | 52.19201 | 4.76831 | 1993 ft | 131 kts | 4° |
| 2026-05-05 02:35 | 52.20107 | 4.76908 | 1821 ft | 130 kts | 5° |
| 2026-05-05 02:35 | 52.20993 | 4.76988 | 1636 ft | 127 kts | 5° |
| 2026-05-05 02:35 | 52.21871 | 4.77069 | 1462 ft | 126 kts | 6° |
| 2026-05-05 02:35 | 52.22739 | 4.77150 | 1292 ft | 125 kts | 6° |
| 2026-05-05 02:36 | 52.23613 | 4.77231 | 1112 ft | 127 kts | 6° |
| 2026-05-05 02:36 | 52.24480 | 4.77310 | 946 ft | 129 kts | 5° |
| 2026-05-05 02:36 | 52.25352 | 4.77392 | 749 ft | 124 kts | 4° |
| 2026-05-05 02:36 | 52.26212 | 4.77470 | 598 ft | 127 kts | 6° |
| 2026-05-05 02:37 | 52.27092 | 4.77549 | 419 ft | 127 kts | 5° |
| 2026-05-05 02:37 | 52.27961 | 4.77630 | 254 ft | 125 kts | 3° |
| 2026-05-05 02:37 | 52.28815 | 4.77707 | 100 ft | 124 kts | 4° |
| 2026-05-05 02:37 | 52.29649 | 4.77784 | 19 ft | 113 kts | 5° |
| 2026-05-05 02:38 | 52.30330 | 4.77859 | 7 ft | 83 kts | 2° |
| 2026-05-05 02:38 | 52.30741 | 4.77891 | -1 ft | 24 kts | 3° |
| 2026-05-05 02:38 | 52.30902 | 4.77848 | -2 ft | 24 kts | 336° |
| 2026-05-05 02:38 | 52.31044 | 4.77734 | 2 ft | 11 kts | 334° |
| 2026-05-05 02:39 | 52.31116 | 4.77669 | 2 ft | 13 kts | 322° |
| 2026-05-05 02:39 | 52.31164 | 4.77544 | 2 ft | 14 kts | 310° |
| 2026-05-05 02:39 | 52.31258 | 4.77498 | 2 ft | 15 kts | 343° |
| 2026-05-05 02:39 | 52.31345 | 4.77405 | 2 ft | 16 kts | 315° |
| 2026-05-05 02:40 | 52.31419 | 4.77264 | 2 ft | 17 kts | 312° |
| 2026-05-05 02:40 | 52.31516 | 4.77198 | 2 ft | 17 kts | 356° |
| 2026-05-05 02:40 | 52.31567 | 4.77072 | 2 ft | 14 kts | 275° |
| 2026-05-05 02:40 | 52.31561 | 4.76911 | 2 ft | 16 kts | 265° |
| 2026-05-05 02:41 | 52.31558 | 4.76817 | 2 ft | 7 kts | 267° |
| 2026-05-05 02:41 | 52.31508 | 4.76684 | 2 ft | 6 kts | 201° |
| 2026-05-05 02:41 | 52.31478 | 4.76635 | 2 ft | 15 kts | 246° |
| 2026-05-05 02:41 | 52.31458 | 4.76274 | 2 ft | 37 kts | 271° |
| 2026-05-05 02:42 | 52.31442 | 4.75829 | 2 ft | 45 kts | 266° |
| 2026-05-05 02:42 | 52.31431 | 4.75555 | 2 ft | 23 kts | 263° |
| 2026-05-05 02:42 | 52.31346 | 4.75447 | 2 ft | 7 kts | 182° |
| 2026-05-05 02:42 | 52.31292 | 4.75419 | 2 ft | 7 kts | 247° |
| 2026-05-05 02:43 | 52.31280 | 4.75353 | 2 ft | 0 kts | 262° |